sensor_id;sensor_type;location;lat;lon;timestamp;pressure;altitude;pressure_sealevel;temperature;humidity
25638;BME280;13496;51.040;13.680;2023-02-08T00:03:19;102274.72;;;15.19;54.01
25638;BME280;13496;51.040;13.680;2023-02-08T00:08:20;102279.09;;;15.19;53.79
25638;BME280;13496;51.040;13.680;2023-02-08T00:13:22;102283.50;;;15.18;53.11
25638;BME280;13496;51.040;13.680;2023-02-08T00:18:24;102281.00;;;15.17;53.43
25638;BME280;13496;51.040;13.680;2023-02-08T00:23:26;102274.09;;;15.16;53.37
25638;BME280;13496;51.040;13.680;2023-02-08T00:28:28;102274.19;;;15.14;53.63
25638;BME280;13496;51.040;13.680;2023-02-08T00:33:29;102275.88;;;15.15;53.61
25638;BME280;13496;51.040;13.680;2023-02-08T00:38:31;102274.28;;;15.13;53.32
25638;BME280;13496;51.040;13.680;2023-02-08T00:43:33;102270.94;;;15.11;53.65
25638;BME280;13496;51.040;13.680;2023-02-08T00:48:35;102265.72;;;15.11;53.60
25638;BME280;13496;51.040;13.680;2023-02-08T00:53:38;102259.03;;;15.07;53.01
25638;BME280;13496;51.040;13.680;2023-02-08T00:58:42;102254.50;;;15.09;53.21
25638;BME280;13496;51.040;13.680;2023-02-08T01:03:43;102252.13;;;15.06;53.30
25638;BME280;13496;51.040;13.680;2023-02-08T01:08:46;102250.44;;;15.05;53.50
25638;BME280;13496;51.040;13.680;2023-02-08T01:13:48;102248.78;;;15.04;53.12
25638;BME280;13496;51.040;13.680;2023-02-08T01:18:52;102250.00;;;14.98;53.41
25638;BME280;13496;51.040;13.680;2023-02-08T01:23:54;102237.78;;;14.98;53.30
25638;BME280;13496;51.040;13.680;2023-02-08T01:28:56;102237.47;;;15.03;53.31
25638;BME280;13496;51.040;13.680;2023-02-08T01:33:59;102235.19;;;14.98;53.02
25638;BME280;13496;51.040;13.680;2023-02-08T01:39:02;102233.72;;;14.94;53.48
25638;BME280;13496;51.040;13.680;2023-02-08T01:49:47;102239.97;;;14.92;53.28
25638;BME280;13496;51.040;13.680;2023-02-08T01:55:05;102235.59;;;14.92;52.81
25638;BME280;13496;51.040;13.680;2023-02-08T02:00:16;102223.47;;;14.91;52.83
25638;BME280;13496;51.040;13.680;2023-02-08T02:05:24;102229.84;;;14.87;53.13
25638;BME280;13496;51.040;13.680;2023-02-08T02:10:30;102227.22;;;14.87;52.91
25638;BME280;13496;51.040;13.680;2023-02-08T02:15:33;102217.81;;;14.85;52.88
25638;BME280;13496;51.040;13.680;2023-02-08T02:20:49;102223.84;;;14.85;52.86
25638;BME280;13496;51.040;13.680;2023-02-08T02:26:20;102221.56;;;14.81;53.33
25638;BME280;13496;51.040;13.680;2023-02-08T02:37:34;102212.97;;;14.79;52.77
25638;BME280;13496;51.040;13.680;2023-02-08T02:42:53;102219.03;;;14.79;52.82
25638;BME280;13496;51.040;13.680;2023-02-08T02:48:21;102218.41;;;14.75;53.27
25638;BME280;13496;51.040;13.680;2023-02-08T02:53:33;102215.78;;;14.75;53.14
25638;BME280;13496;51.040;13.680;2023-02-08T02:58:37;102222.78;;;14.75;52.52
25638;BME280;13496;51.040;13.680;2023-02-08T03:03:40;102211.94;;;14.68;53.16
25638;BME280;13496;51.040;13.680;2023-02-08T03:14:33;102210.03;;;14.70;52.53
25638;BME280;13496;51.040;13.680;2023-02-08T03:19:44;102210.25;;;14.67;52.94
25638;BME280;13496;51.040;13.680;2023-02-08T03:24:55;102219.97;;;14.65;52.72
25638;BME280;13496;51.040;13.680;2023-02-08T03:30:17;102224.44;;;14.63;52.82
25638;BME280;13496;51.040;13.680;2023-02-08T03:35:37;102233.88;;;14.66;52.92
25638;BME280;13496;51.040;13.680;2023-02-08T03:40:44;102237.72;;;14.60;52.59
25638;BME280;13496;51.040;13.680;2023-02-08T03:46:00;102243.03;;;14.59;53.04
25638;BME280;13496;51.040;13.680;2023-02-08T03:51:04;102240.50;;;14.57;52.83
25638;BME280;13496;51.040;13.680;2023-02-08T03:56:11;102257.06;;;14.58;52.93
25638;BME280;13496;51.040;13.680;2023-02-08T04:01:22;102255.47;;;14.55;52.77
25638;BME280;13496;51.040;13.680;2023-02-08T04:06:25;102255.66;;;14.52;52.77
25638;BME280;13496;51.040;13.680;2023-02-08T04:11:28;102257.56;;;14.50;52.40
25638;BME280;13496;51.040;13.680;2023-02-08T04:16:29;102255.00;;;14.48;52.34
25638;BME280;13496;51.040;13.680;2023-02-08T04:21:31;102254.06;;;14.49;52.71
25638;BME280;13496;51.040;13.680;2023-02-08T04:26:33;102253.41;;;14.46;52.67
25638;BME280;13496;51.040;13.680;2023-02-08T04:31:35;102249.03;;;14.46;52.41
25638;BME280;13496;51.040;13.680;2023-02-08T04:36:37;102257.78;;;14.45;52.43
25638;BME280;13496;51.040;13.680;2023-02-08T04:41:38;102247.47;;;14.44;52.13
25638;BME280;13496;51.040;13.680;2023-02-08T04:46:40;102244.03;;;14.43;52.43
25638;BME280;13496;51.040;13.680;2023-02-08T04:51:42;102238.78;;;14.43;52.13
25638;BME280;13496;51.040;13.680;2023-02-08T04:56:43;102239.81;;;14.41;52.40
25638;BME280;13496;51.040;13.680;2023-02-08T05:01:45;102234.72;;;14.39;52.06
25638;BME280;13496;51.040;13.680;2023-02-08T05:06:47;102231.53;;;14.34;52.47
25638;BME280;13496;51.040;13.680;2023-02-08T05:11:48;102232.47;;;14.33;52.67
25638;BME280;13496;51.040;13.680;2023-02-08T05:16:51;102231.34;;;14.37;52.12
25638;BME280;13496;51.040;13.680;2023-02-08T05:21:53;102234.16;;;14.34;52.84
25638;BME280;13496;51.040;13.680;2023-02-08T05:26:54;102234.97;;;14.35;52.50
25638;BME280;13496;51.040;13.680;2023-02-08T05:31:56;102226.44;;;14.33;53.18
25638;BME280;13496;51.040;13.680;2023-02-08T05:36:58;102233.44;;;14.32;53.04
25638;BME280;13496;51.040;13.680;2023-02-08T05:41:59;102236.22;;;14.29;53.08
25638;BME280;13496;51.040;13.680;2023-02-08T05:47:01;102235.41;;;14.28;53.17
25638;BME280;13496;51.040;13.680;2023-02-08T05:52:04;102246.56;;;14.31;53.18
25638;BME280;13496;51.040;13.680;2023-02-08T05:57:06;102239.78;;;14.28;52.70
25638;BME280;13496;51.040;13.680;2023-02-08T06:02:07;102239.03;;;14.26;52.76
25638;BME280;13496;51.040;13.680;2023-02-08T06:07:09;102239.16;;;14.24;52.85
25638;BME280;13496;51.040;13.680;2023-02-08T06:12:10;102239.97;;;14.25;52.66
25638;BME280;13496;51.040;13.680;2023-02-08T06:17:12;102249.78;;;14.21;52.68
25638;BME280;13496;51.040;13.680;2023-02-08T06:22:14;102248.94;;;14.21;52.91
25638;BME280;13496;51.040;13.680;2023-02-08T06:27:15;102256.03;;;14.19;52.94
25638;BME280;13496;51.040;13.680;2023-02-08T06:32:17;102259.28;;;14.22;53.04
25638;BME280;13496;51.040;13.680;2023-02-08T06:37:19;102268.13;;;14.20;52.96
25638;BME280;13496;51.040;13.680;2023-02-08T06:42:20;102273.28;;;14.21;53.13
25638;BME280;13496;51.040;13.680;2023-02-08T06:47:23;102274.31;;;14.19;52.89
25638;BME280;13496;51.040;13.680;2023-02-08T06:52:24;102275.44;;;14.15;53.00
25638;BME280;13496;51.040;13.680;2023-02-08T06:57:26;102290.91;;;14.18;53.17
25638;BME280;13496;51.040;13.680;2023-02-08T07:02:28;102289.97;;;14.19;52.97
25638;BME280;13496;51.040;13.680;2023-02-08T07:07:30;102290.91;;;14.18;52.74
25638;BME280;13496;51.040;13.680;2023-02-08T07:12:34;102291.84;;;14.17;53.33
25638;BME280;13496;51.040;13.680;2023-02-08T07:17:36;102287.53;;;14.16;52.98
25638;BME280;13496;51.040;13.680;2023-02-08T07:22:38;102287.53;;;14.16;53.11
25638;BME280;13496;51.040;13.680;2023-02-08T07:27:40;102290.16;;;14.16;53.29
25638;BME280;13496;51.040;13.680;2023-02-08T07:32:42;102285.88;;;14.15;53.18
25638;BME280;13496;51.040;13.680;2023-02-08T07:37:43;102289.03;;;14.20;52.83
25638;BME280;13496;51.040;13.680;2023-02-08T07:42:45;102296.97;;;14.18;52.97
25638;BME280;13496;51.040;13.680;2023-02-08T07:47:58;102289.97;;;14.19;53.17
25638;BME280;13496;51.040;13.680;2023-02-08T07:53:00;102290.53;;;14.24;53.09
25638;BME280;13496;51.040;13.680;2023-02-08T07:58:01;102278.19;;;14.26;52.53
25638;BME280;13496;51.040;13.680;2023-02-08T08:03:03;102280.69;;;14.27;52.71
25638;BME280;13496;51.040;13.680;2023-02-08T08:08:05;102297.00;;;14.31;52.92
25638;BME280;13496;51.040;13.680;2023-02-08T08:13:06;102298.41;;;14.37;52.86
25638;BME280;13496;51.040;13.680;2023-02-08T08:18:08;102302.63;;;14.39;53.10
25638;BME280;13496;51.040;13.680;2023-02-08T08:23:10;102304.16;;;14.42;52.82
25638;BME280;13496;51.040;13.680;2023-02-08T08:28:11;102302.94;;;14.47;52.60
25638;BME280;13496;51.040;13.680;2023-02-08T08:33:13;102302.69;;;14.52;52.67
25638;BME280;13496;51.040;13.680;2023-02-08T08:38:14;102297.47;;;14.52;52.48
25638;BME280;13496;51.040;13.680;2023-02-08T08:43:16;102297.78;;;14.60;52.71
25638;BME280;13496;51.040;13.680;2023-02-08T08:48:18;102296.78;;;14.63;52.69
25638;BME280;13496;51.040;13.680;2023-02-08T08:53:19;102306.19;;;14.65;52.28
25638;BME280;13496;51.040;13.680;2023-02-08T08:58:22;102294.50;;;14.71;52.21
25638;BME280;13496;51.040;13.680;2023-02-08T09:03:25;102297.66;;;14.76;52.31
25638;BME280;13496;51.040;13.680;2023-02-08T09:08:27;102298.28;;;14.80;52.19
25638;BME280;13496;51.040;13.680;2023-02-08T09:13:28;102299.03;;;14.82;52.38
25638;BME280;13496;51.040;13.680;2023-02-08T09:18:30;102307.50;;;14.85;52.17
25638;BME280;13496;51.040;13.680;2023-02-08T09:23:32;102293.47;;;14.86;52.12
25638;BME280;13496;51.040;13.680;2023-02-08T09:28:34;102305.41;;;14.90;52.49
25638;BME280;13496;51.040;13.680;2023-02-08T09:33:35;102302.59;;;14.93;52.36
25638;BME280;13496;51.040;13.680;2023-02-08T09:38:37;102306.69;;;14.97;51.99
25638;BME280;13496;51.040;13.680;2023-02-08T09:49:01;102312.16;;;15.07;52.37
25638;BME280;13496;51.040;13.680;2023-02-08T09:54:22;102314.66;;;15.09;51.77
25638;BME280;13496;51.040;13.680;2023-02-08T09:59:28;102309.22;;;15.12;52.25
25638;BME280;13496;51.040;13.680;2023-02-08T10:05:01;102311.53;;;15.16;52.13
25638;BME280;13496;51.040;13.680;2023-02-08T10:10:18;102316.66;;;15.18;52.16
25638;BME280;13496;51.040;13.680;2023-02-08T10:20:52;102301.50;;;15.23;51.89
25638;BME280;13496;51.040;13.680;2023-02-08T10:26:18;102297.00;;;15.25;52.08
25638;BME280;13496;51.040;13.680;2023-02-08T10:36:54;102291.59;;;15.28;51.84
25638;BME280;13496;51.040;13.680;2023-02-08T10:41:56;102285.19;;;15.32;51.30
25638;BME280;13496;51.040;13.680;2023-02-08T10:47:08;102274.53;;;15.35;51.55
25638;BME280;13496;51.040;13.680;2023-02-08T10:52:13;102261.53;;;15.34;51.66
25638;BME280;13496;51.040;13.680;2023-02-08T10:57:23;102263.13;;;15.36;51.33
25638;BME280;13496;51.040;13.680;2023-02-08T11:02:30;102254.00;;;15.42;51.78
25638;BME280;13496;51.040;13.680;2023-02-08T11:07:32;102235.59;;;15.43;51.69
25638;BME280;13496;51.040;13.680;2023-02-08T11:12:34;102234.53;;;15.46;51.28
25638;BME280;13496;51.040;13.680;2023-02-08T11:17:36;102227.31;;;15.49;51.36
25638;BME280;13496;51.040;13.680;2023-02-08T11:22:38;102226.38;;;15.51;51.48
25638;BME280;13496;51.040;13.680;2023-02-08T11:27:47;102224.69;;;15.49;51.22
25638;BME280;13496;51.040;13.680;2023-02-08T11:38:18;102233.91;;;15.55;51.12
25638;BME280;13496;51.040;13.680;2023-02-08T11:43:24;102231.06;;;15.58;51.63
25638;BME280;13496;51.040;13.680;2023-02-08T11:48:39;102230.97;;;15.60;51.69
25638;BME280;13496;51.040;13.680;2023-02-08T11:53:47;102223.03;;;15.61;51.51
25638;BME280;13496;51.040;13.680;2023-02-08T12:04:06;102218.00;;;15.58;51.15
25638;BME280;13496;51.040;13.680;2023-02-08T12:14:49;102214.31;;;15.61;51.18
25638;BME280;13496;51.040;13.680;2023-02-08T12:36:06;102202.91;;;15.62;51.16
25638;BME280;13496;51.040;13.680;2023-02-08T12:41:26;102205.53;;;15.62;51.56
25638;BME280;13496;51.040;13.680;2023-02-08T12:57:22;102207.19;;;15.63;51.30
25638;BME280;13496;51.040;13.680;2023-02-08T13:02:31;102208.84;;;15.64;51.37
25638;BME280;13496;51.040;13.680;2023-02-08T13:07:38;102201.22;;;15.61;50.86
25638;BME280;13496;51.040;13.680;2023-02-08T13:12:45;102193.50;;;15.59;51.28
25638;BME280;13496;51.040;13.680;2023-02-08T13:18:00;102172.56;;;15.59;50.80
25638;BME280;13496;51.040;13.680;2023-02-08T13:23:25;102163.97;;;15.57;50.69
25638;BME280;13496;51.040;13.680;2023-02-08T13:28:29;102154.56;;;15.55;51.01
25638;BME280;13496;51.040;13.680;2023-02-08T13:33:55;102149.34;;;15.55;51.35
25638;BME280;13496;51.040;13.680;2023-02-08T13:38:59;102147.69;;;15.54;50.92
25638;BME280;13496;51.040;13.680;2023-02-08T13:44:07;102144.94;;;15.55;51.04
25638;BME280;13496;51.040;13.680;2023-02-08T13:49:44;102140.75;;;15.53;50.90
25638;BME280;13496;51.040;13.680;2023-02-08T14:00:32;102150.50;;;15.51;50.71
25638;BME280;13496;51.040;13.680;2023-02-08T14:11:38;102156.91;;;15.46;50.80
25638;BME280;13496;51.040;13.680;2023-02-08T14:16:43;102159.53;;;15.46;50.53
25638;BME280;13496;51.040;13.680;2023-02-08T14:21:59;102149.97;;;15.45;50.71
25638;BME280;13496;51.040;13.680;2023-02-08T14:32:25;102148.44;;;15.43;51.00
25638;BME280;13496;51.040;13.680;2023-02-08T14:37:31;102152.81;;;15.42;51.23
25638;BME280;13496;51.040;13.680;2023-02-08T14:42:53;102139.97;;;15.39;51.09
25638;BME280;13496;51.040;13.680;2023-02-08T14:48:22;102144.38;;;15.39;50.71
25638;BME280;13496;51.040;13.680;2023-02-08T14:53:41;102141.84;;;15.37;51.29
25638;BME280;13496;51.040;13.680;2023-02-08T14:58:48;102129.94;;;15.33;51.34
25638;BME280;13496;51.040;13.680;2023-02-08T15:03:54;102132.66;;;15.32;50.81
25638;BME280;13496;51.040;13.680;2023-02-08T15:08:57;102138.94;;;15.29;50.90
25638;BME280;13496;51.040;13.680;2023-02-08T15:14:01;102135.56;;;15.27;51.36
25638;BME280;13496;51.040;13.680;2023-02-08T15:19:04;102130.13;;;15.30;50.70
25638;BME280;13496;51.040;13.680;2023-02-08T15:24:20;102116.44;;;15.27;51.06
25638;BME280;13496;51.040;13.680;2023-02-08T15:29:29;102109.53;;;15.25;51.14
25638;BME280;13496;51.040;13.680;2023-02-08T15:34:31;102111.34;;;15.25;51.31
25638;BME280;13496;51.040;13.680;2023-02-08T15:39:36;102109.53;;;15.25;51.52
25638;BME280;13496;51.040;13.680;2023-02-08T15:44:42;102102.75;;;15.23;51.14
25638;BME280;13496;51.040;13.680;2023-02-08T15:49:46;102098.34;;;15.23;51.14
25638;BME280;13496;51.040;13.680;2023-02-08T15:54:51;102090.50;;;15.23;50.84
25638;BME280;13496;51.040;13.680;2023-02-08T15:59:57;102092.50;;;15.20;51.04
25638;BME280;13496;51.040;13.680;2023-02-08T16:05:02;102086.44;;;15.19;51.21
25638;BME280;13496;51.040;13.680;2023-02-08T16:15:40;102079.53;;;15.18;51.64
25638;BME280;13496;51.040;13.680;2023-02-08T16:20:43;102092.75;;;15.17;51.70
25638;BME280;13496;51.040;13.680;2023-02-08T16:25:44;102082.28;;;15.17;51.72
25638;BME280;13496;51.040;13.680;2023-02-08T16:30:49;102092.19;;;15.12;51.28
25638;BME280;13496;51.040;13.680;2023-02-08T16:35:51;102084.16;;;15.15;51.22
25638;BME280;13496;51.040;13.680;2023-02-08T16:40:55;102074.53;;;15.15;51.31
25638;BME280;13496;51.040;13.680;2023-02-08T16:51:19;102071.28;;;15.12;51.60
25638;BME280;13496;51.040;13.680;2023-02-08T16:56:22;102069.63;;;15.11;51.27
25638;BME280;13496;51.040;13.680;2023-02-08T17:01:24;102067.97;;;15.10;51.54
25638;BME280;13496;51.040;13.680;2023-02-08T17:06:33;102057.50;;;15.10;51.21
25638;BME280;13496;51.040;13.680;2023-02-08T17:11:35;102062.72;;;15.10;51.58
25638;BME280;13496;51.040;13.680;2023-02-08T17:16:38;102071.50;;;15.09;51.45
25638;BME280;13496;51.040;13.680;2023-02-08T17:21:40;102071.63;;;15.07;51.56
25638;BME280;13496;51.040;13.680;2023-02-08T17:26:42;102069.00;;;15.07;51.76
25638;BME280;13496;51.040;13.680;2023-02-08T17:31:44;102057.94;;;15.04;51.82
25638;BME280;13496;51.040;13.680;2023-02-08T17:36:46;102063.03;;;15.05;51.77
25638;BME280;13496;51.040;13.680;2023-02-08T17:41:48;102059.72;;;15.03;51.86
25638;BME280;13496;51.040;13.680;2023-02-08T17:46:49;102047.59;;;15.02;51.63
25638;BME280;13496;51.040;13.680;2023-02-08T17:51:51;102053.66;;;15.03;52.03
25638;BME280;13496;51.040;13.680;2023-02-08T17:56:53;102049.25;;;15.03;51.46
25638;BME280;13496;51.040;13.680;2023-02-08T18:01:59;102041.50;;;15.01;51.62
25638;BME280;13496;51.040;13.680;2023-02-08T18:07:00;102047.59;;;15.02;51.78
25638;BME280;13496;51.040;13.680;2023-02-08T18:12:02;102040.66;;;15.01;51.49
25638;BME280;13496;51.040;13.680;2023-02-08T18:17:04;102042.56;;;14.99;51.59
25638;BME280;13496;51.040;13.680;2023-02-08T18:22:05;102032.94;;;14.99;52.04
25638;BME280;13496;51.040;13.680;2023-02-08T18:27:07;102028.56;;;15.00;51.54
25638;BME280;13496;51.040;13.680;2023-02-08T18:32:09;102033.91;;;14.98;51.62
25638;BME280;13496;51.040;13.680;2023-02-08T18:37:10;102032.13;;;14.99;52.01
25638;BME280;13496;51.040;13.680;2023-02-08T18:42:13;102028.75;;;14.97;51.93
25638;BME280;13496;51.040;13.680;2023-02-08T18:47:15;102034.09;;;14.95;51.65
25638;BME280;13496;51.040;13.680;2023-02-08T18:52:17;102035.97;;;14.93;52.07
25638;BME280;13496;51.040;13.680;2023-02-08T18:57:18;102024.38;;;14.97;51.83
25638;BME280;13496;51.040;13.680;2023-02-08T19:02:21;102017.47;;;14.96;52.48
25638;BME280;13496;51.040;13.680;2023-02-08T19:07:24;102012.97;;;14.98;52.78
25638;BME280;13496;51.040;13.680;2023-02-08T19:12:26;102000.97;;;14.96;52.87
25638;BME280;13496;51.040;13.680;2023-02-08T19:17:28;101991.34;;;14.96;52.57
25638;BME280;13496;51.040;13.680;2023-02-08T19:22:29;101982.53;;;14.97;52.50
25638;BME280;13496;51.040;13.680;2023-02-08T19:27:31;101965.06;;;14.98;52.99
25638;BME280;13496;51.040;13.680;2023-02-08T19:32:33;101960.78;;;14.97;52.59
25638;BME280;13496;51.040;13.680;2023-02-08T19:37:35;101952.88;;;14.98;52.96
25638;BME280;13496;51.040;13.680;2023-02-08T19:42:37;101942.50;;;14.97;53.10
25638;BME280;13496;51.040;13.680;2023-02-08T19:47:40;101939.06;;;14.96;52.73
25638;BME280;13496;51.040;13.680;2023-02-08T19:52:41;101921.72;;;14.95;52.85
25638;BME280;13496;51.040;13.680;2023-02-08T19:57:43;101923.38;;;14.96;52.71
25638;BME280;13496;51.040;13.680;2023-02-08T20:02:45;101924.31;;;14.95;53.20
25638;BME280;13496;51.040;13.680;2023-02-08T20:07:47;101929.56;;;14.95;53.17
25638;BME280;13496;51.040;13.680;2023-02-08T20:12:48;101917.53;;;14.93;52.97
25638;BME280;13496;51.040;13.680;2023-02-08T20:17:50;101907.91;;;14.93;52.85
25638;BME280;13496;51.040;13.680;2023-02-08T20:22:52;101895.66;;;14.94;52.67
25638;BME280;13496;51.040;13.680;2023-02-08T20:27:54;101882.00;;;14.90;53.04
25638;BME280;13496;51.040;13.680;2023-02-08T20:32:56;101883.69;;;14.91;52.67
25638;BME280;13496;51.040;13.680;2023-02-08T20:37:58;101874.88;;;14.92;52.78
25638;BME280;13496;51.040;13.680;2023-02-08T20:43:00;101872.06;;;14.95;53.26
25638;BME280;13496;51.040;13.680;2023-02-08T20:48:01;101870.59;;;14.91;53.31
25638;BME280;13496;51.040;13.680;2023-02-08T20:53:03;101863.81;;;14.89;52.91
25638;BME280;13496;51.040;13.680;2023-02-08T20:58:05;101852.31;;;14.91;52.99
25638;BME280;13496;51.040;13.680;2023-02-08T21:03:06;101845.31;;;14.92;53.10
25638;BME280;13496;51.040;13.680;2023-02-08T21:08:08;101829.63;;;14.92;53.39
25638;BME280;13496;51.040;13.680;2023-02-08T21:13:10;101832.25;;;14.92;52.78
25638;BME280;13496;51.040;13.680;2023-02-08T21:18:11;101825.44;;;14.89;52.81
25638;BME280;13496;51.040;13.680;2023-02-08T21:23:13;101818.56;;;14.88;53.18
25638;BME280;13496;51.040;13.680;2023-02-08T21:28:18;101803.94;;;14.86;52.96
25638;BME280;13496;51.040;13.680;2023-02-08T21:33:20;101794.22;;;14.88;53.32
25638;BME280;13496;51.040;13.680;2023-02-08T21:38:21;101781.97;;;14.88;52.83
25638;BME280;13496;51.040;13.680;2023-02-08T21:43:23;101775.78;;;14.89;52.77
25638;BME280;13496;51.040;13.680;2023-02-08T21:48:25;101769.97;;;14.86;53.04
25638;BME280;13496;51.040;13.680;2023-02-08T21:53:27;101768.91;;;14.88;53.06
25638;BME280;13496;51.040;13.680;2023-02-08T21:58:47;101745.59;;;14.85;52.82
25638;BME280;13496;51.040;13.680;2023-02-08T22:03:48;101746.44;;;14.86;52.74
25638;BME280;13496;51.040;13.680;2023-02-08T22:08:50;101746.56;;;14.84;52.87
25638;BME280;13496;51.040;13.680;2023-02-08T22:13:52;101736.13;;;14.84;52.91
25638;BME280;13496;51.040;13.680;2023-02-08T22:18:54;101734.44;;;14.83;53.08
25638;BME280;13496;51.040;13.680;2023-02-08T22:23:56;101737.06;;;14.83;52.72
25638;BME280;13496;51.040;13.680;2023-02-08T22:28:57;101742.28;;;14.83;52.51
25638;BME280;13496;51.040;13.680;2023-02-08T22:33:59;101738.94;;;14.81;52.76
25638;BME280;13496;51.040;13.680;2023-02-08T22:39:01;101727.53;;;14.82;52.70
25638;BME280;13496;51.040;13.680;2023-02-08T22:44:02;101723.13;;;14.83;53.05
25638;BME280;13496;51.040;13.680;2023-02-08T22:49:04;101719.81;;;14.81;53.03
25638;BME280;13496;51.040;13.680;2023-02-08T22:54:06;101712.09;;;14.79;52.70
25638;BME280;13496;51.040;13.680;2023-02-08T22:59:07;101715.44;;;14.81;53.20
25638;BME280;13496;51.040;13.680;2023-02-08T23:04:09;101713.66;;;14.82;52.79
25638;BME280;13496;51.040;13.680;2023-02-08T23:09:11;101704.38;;;14.77;52.92
25638;BME280;13496;51.040;13.680;2023-02-08T23:14:13;101706.84;;;14.79;52.80
25638;BME280;13496;51.040;13.680;2023-02-08T23:19:16;101700.81;;;14.79;53.10
25638;BME280;13496;51.040;13.680;2023-02-08T23:24:18;101700.81;;;14.79;52.78
25638;BME280;13496;51.040;13.680;2023-02-08T23:29:20;101700.19;;;14.75;53.02
25638;BME280;13496;51.040;13.680;2023-02-08T23:34:21;101701.88;;;14.76;53.15
25638;BME280;13496;51.040;13.680;2023-02-08T23:39:23;101698.41;;;14.75;52.79
25638;BME280;13496;51.040;13.680;2023-02-08T23:44:25;101687.03;;;14.76;52.91
25638;BME280;13496;51.040;13.680;2023-02-08T23:49:27;101690.56;;;14.75;53.21
25638;BME280;13496;51.040;13.680;2023-02-08T23:54:28;101700.44;;;14.72;53.11
25638;BME280;13496;51.040;13.680;2023-02-08T23:59:30;101689.03;;;14.73;53.31
